createdAt,value
2022-08-23T00:00:13.708Z,56.62
2022-08-23T00:01:12.918Z,56.42
2022-08-23T00:02:22.730Z,56.42
2022-08-23T00:03:14.937Z,56.62
2022-08-23T00:04:13.845Z,56.62
2022-08-23T00:05:12.903Z,56.82
2022-08-23T00:06:12.864Z,57.02
2022-08-23T00:07:13.812Z,57.02
2022-08-23T00:08:12.843Z,57.02
2022-08-23T00:09:12.825Z,57.12
2022-08-23T00:10:12.827Z,56.82
2022-08-23T00:11:12.818Z,56.72
2022-08-23T00:12:13.757Z,56.82
2022-08-23T00:13:12.788Z,56.62
2022-08-23T00:14:12.764Z,56.82
2022-08-23T00:15:12.783Z,56.72
2022-08-23T00:16:12.770Z,56.92
2022-08-23T00:17:12.740Z,56.72
2022-08-23T00:18:13.728Z,56.82
2022-08-23T00:19:13.716Z,56.72
2022-08-23T00:20:12.699Z,56.72
2022-08-23T00:21:12.698Z,56.82
2022-08-23T00:22:12.707Z,56.82
2022-08-23T00:23:12.672Z,56.82
2022-08-23T00:24:12.649Z,56.72
2022-08-23T00:25:12.659Z,57.02
2022-08-23T00:26:12.639Z,57.02
2022-08-23T00:27:12.645Z,56.82
2022-08-23T00:28:14.971Z,56.72
2022-08-23T00:29:12.620Z,56.72
2022-08-23T00:30:12.595Z,57.02
2022-08-23T00:31:12.586Z,57.12
2022-08-23T00:32:12.592Z,57.32
2022-08-23T00:33:12.563Z,57.32
2022-08-23T00:34:13.523Z,57.32
2022-08-23T00:35:12.544Z,57.42
2022-08-23T00:36:13.534Z,57.52
2022-08-23T00:37:13.468Z,57.62
2022-08-23T00:38:33.109Z,57.62
2022-08-23T00:39:13.519Z,57.62
2022-08-23T00:40:12.515Z,57.72
2022-08-23T00:41:12.479Z,57.92
2022-08-23T00:42:13.444Z,58.02
2022-08-23T00:43:12.466Z,58.05
2022-08-23T00:44:12.437Z,58.05
2022-08-23T00:45:12.456Z,58.05
2022-08-23T00:46:12.420Z,58.15
2022-08-23T00:47:12.403Z,58.35
2022-08-23T00:48:12.402Z,58.45
2022-08-23T00:49:12.389Z,58.65
2022-08-23T00:50:23.346Z,58.65
2022-08-23T00:51:13.379Z,58.65
2022-08-23T00:52:12.345Z,58.75
2022-08-23T00:53:12.341Z,58.85
2022-08-23T00:54:12.328Z,59.05
2022-08-23T00:55:12.312Z,59.05
2022-08-23T00:56:12.335Z,59.05
2022-08-23T00:57:12.294Z,58.95
2022-08-23T00:58:12.274Z,59.15
2022-08-23T00:59:12.274Z,59.35
2022-08-23T01:00:13.231Z,59.25
2022-08-23T01:01:12.313Z,59.45
2022-08-23T01:02:12.386Z,59.35
2022-08-23T01:03:12.231Z,59.35
2022-08-23T01:04:12.229Z,59.25
2022-08-23T01:05:12.204Z,59.25
2022-08-23T01:06:12.188Z,59.05
2022-08-23T01:07:12.196Z,58.75
2022-08-23T01:08:12.179Z,58.55
2022-08-23T01:09:12.180Z,58.55
2022-08-23T01:10:14.950Z,58.55
2022-08-23T01:11:13.152Z,58.45
2022-08-23T01:12:12.127Z,58.45
2022-08-23T01:13:12.131Z,58.55
2022-08-23T01:14:12.121Z,58.45
2022-08-23T01:15:12.090Z,58.35
2022-08-23T01:16:12.079Z,58.45
2022-08-23T01:17:12.073Z,58.85
2022-08-23T01:18:12.061Z,58.75
2022-08-23T01:19:12.061Z,58.65
2022-08-23T01:20:12.059Z,59.08
2022-08-23T01:21:12.056Z,58.98
2022-08-23T01:22:12.021Z,58.87
2022-08-23T01:23:12.017Z,59.28
2022-08-23T01:24:36.604Z,59.48
2022-08-23T01:25:13.004Z,59.58
2022-08-23T01:26:11.979Z,59.38
2022-08-23T01:27:11.955Z,59.48
2022-08-23T01:28:11.976Z,59.68
2022-08-23T01:29:11.935Z,60.08
2022-08-23T01:30:11.945Z,60.08
2022-08-23T01:31:11.921Z,60.28
2022-08-23T01:32:11.954Z,60.28
2022-08-23T01:33:11.917Z,60.18
2022-08-23T01:34:11.883Z,60.38
2022-08-23T01:35:11.898Z,60.18
2022-08-23T01:36:11.885Z,60.08
2022-08-23T01:37:11.862Z,59.98
2022-08-23T01:38:11.839Z,59.88
2022-08-23T01:39:11.819Z,59.78
2022-08-23T01:40:11.907Z,59.98
2022-08-23T01:41:11.815Z,60.28
2022-08-23T01:42:11.790Z,60.28
2022-08-23T01:43:11.794Z,60.78
2022-08-23T01:44:11.773Z,60.98
2022-08-23T01:45:11.789Z,61.28
2022-08-23T01:46:11.752Z,61.51
2022-08-23T01:47:11.764Z,61.61
2022-08-23T01:48:11.733Z,61.61
2022-08-23T01:49:11.728Z,61.71
2022-08-23T01:50:11.706Z,61.41
2022-08-23T01:51:11.704Z,61.51
2022-08-23T01:52:11.698Z,61.61
2022-08-23T01:53:11.680Z,61.61
2022-08-23T01:54:11.665Z,61.41
2022-08-23T01:55:11.663Z,61.31
2022-08-23T01:56:11.656Z,61.11
2022-08-23T01:57:11.640Z,61.21
2022-08-23T01:58:11.633Z,61.21
2022-08-23T01:59:11.617Z,61.21
2022-08-23T02:00:11.614Z,61.41
2022-08-23T02:01:11.743Z,61.61
2022-08-23T02:02:11.569Z,61.81
2022-08-23T02:03:11.565Z,61.91
2022-08-23T02:04:11.550Z,61.81
2022-08-23T02:05:11.710Z,61.91
2022-08-23T02:06:11.622Z,62.21
2022-08-23T02:07:11.716Z,62.31
2022-08-23T02:08:11.501Z,62.21
2022-08-23T02:09:17.919Z,62.31
2022-08-23T02:10:12.504Z,62.21
2022-08-23T02:11:11.517Z,62.31
2022-08-23T02:12:11.464Z,62.41
2022-08-23T02:13:11.474Z,62.41
2022-08-23T02:14:11.445Z,62.41
2022-08-23T02:15:11.440Z,62.21
2022-08-23T02:16:11.434Z,62.31
2022-08-23T02:17:11.436Z,61.91
2022-08-23T02:18:11.395Z,61.61
2022-08-23T02:19:11.389Z,61.61
2022-08-23T02:20:11.377Z,61.51
2022-08-23T02:21:11.366Z,61.61
2022-08-23T02:22:11.367Z,61.61
2022-08-23T02:23:11.342Z,61.41
2022-08-23T02:24:11.342Z,61.41
2022-08-23T02:25:11.330Z,61.31
2022-08-23T02:26:11.309Z,61.21
2022-08-23T02:27:11.319Z,61.41
2022-08-23T02:28:11.290Z,61.41
2022-08-23T02:29:11.298Z,61.41
2022-08-23T02:30:11.275Z,61.61
2022-08-23T02:31:11.429Z,61.81
2022-08-23T02:32:11.284Z,61.81
2022-08-23T02:33:11.231Z,62.11
2022-08-23T02:34:11.228Z,62.31
2022-08-23T02:35:11.213Z,62.34
2022-08-23T02:36:11.237Z,62.54
2022-08-23T02:37:11.194Z,62.74
2022-08-23T02:38:11.207Z,62.94
2022-08-23T02:39:11.155Z,62.94
2022-08-23T02:40:11.224Z,63.24
2022-08-23T02:41:11.166Z,63.34
2022-08-23T02:42:11.908Z,63.45
2022-08-23T02:43:11.117Z,63.64
2022-08-23T02:44:11.123Z,63.78
2022-08-23T02:45:11.098Z,63.67
2022-08-23T02:46:11.113Z,63.78
2022-08-23T02:47:11.118Z,64.07
2022-08-23T02:48:11.061Z,63.98
2022-08-23T02:49:11.060Z,64.18
2022-08-23T02:50:11.082Z,63.87
2022-08-23T02:51:11.033Z,63.78
2022-08-23T02:52:11.025Z,63.98
2022-08-23T02:53:11.027Z,63.98
2022-08-23T02:54:11.019Z,64.18
2022-08-23T02:55:11.027Z,64.48
2022-08-23T02:56:21.286Z,64.48
2022-08-23T02:57:11.965Z,64.37
2022-08-23T02:58:10.991Z,64.48
2022-08-23T02:59:10.961Z,64.40
2022-08-23T03:00:10.948Z,64.18
2022-08-23T03:01:10.916Z,64.28
2022-08-23T03:02:10.978Z,63.98
2022-08-23T03:03:10.886Z,63.67
2022-08-23T03:04:10.886Z,63.67
2022-08-23T03:05:10.873Z,63.78
2022-08-23T03:06:24.438Z,64.07
2022-08-23T03:07:11.857Z,63.98
2022-08-23T03:08:10.848Z,64.07
2022-08-23T03:09:10.853Z,64.07
2022-08-23T03:10:10.833Z,64.18
2022-08-23T03:11:10.822Z,64.37
2022-08-23T03:12:10.799Z,64.18
2022-08-23T03:13:10.778Z,64.37
2022-08-23T03:14:10.811Z,64.37
2022-08-23T03:15:11.736Z,64.48
2022-08-23T03:16:11.131Z,64.48
2022-08-23T03:17:10.749Z,64.40
2022-08-23T03:18:10.783Z,64.51
2022-08-23T03:19:10.717Z,64.61
2022-08-23T03:20:10.701Z,64.51
2022-08-23T03:21:10.694Z,64.61
2022-08-23T03:22:10.701Z,64.71
2022-08-23T03:23:10.671Z,64.91
2022-08-23T03:24:10.728Z,65.01
2022-08-23T03:25:10.662Z,65.01
2022-08-23T03:26:10.658Z,65.11
2022-08-23T03:27:10.649Z,65.01
2022-08-23T03:28:10.634Z,65.31
2022-08-23T03:29:10.617Z,65.31
2022-08-23T03:30:17.745Z,65.21
2022-08-23T03:31:11.589Z,65.01
2022-08-23T03:32:10.578Z,65.01
2022-08-23T03:33:10.571Z,65.14
2022-08-23T03:34:10.584Z,65.14
2022-08-23T03:35:14.368Z,65.11
2022-08-23T03:36:10.523Z,65.34
2022-08-23T03:37:10.537Z,65.34
2022-08-23T03:38:10.505Z,65.44
2022-08-23T03:39:10.530Z,65.34
2022-08-23T03:40:10.579Z,65.44
2022-08-23T03:41:10.460Z,65.64
2022-08-23T03:42:10.461Z,65.74
2022-08-23T03:43:10.470Z,65.74
2022-08-23T03:44:10.431Z,65.64
2022-08-23T03:45:10.426Z,65.74
2022-08-23T03:46:10.420Z,65.64
2022-08-23T03:47:10.406Z,65.54
2022-08-23T03:48:10.414Z,65.44
2022-08-23T03:49:10.392Z,65.54
2022-08-23T03:50:10.386Z,65.34
2022-08-23T03:51:10.355Z,65.34
2022-08-23T03:52:10.356Z,65.44
2022-08-23T03:53:12.107Z,65.34
2022-08-23T03:54:10.343Z,65.24
2022-08-23T03:55:10.316Z,65.14
2022-08-23T03:56:10.297Z,65.44
2022-08-23T03:57:10.293Z,65.37
2022-08-23T03:58:10.320Z,65.47
2022-08-23T03:59:10.287Z,65.47
2022-08-23T04:00:10.258Z,65.57
2022-08-23T04:01:10.247Z,65.57
2022-08-23T04:02:10.327Z,65.57
2022-08-23T04:03:10.295Z,65.57
2022-08-23T04:04:10.236Z,65.67
2022-08-23T04:05:10.230Z,65.67
2022-08-23T04:06:10.206Z,65.88
2022-08-23T04:07:10.212Z,65.88
2022-08-23T04:08:10.193Z,65.97
2022-08-23T04:09:10.197Z,66.08
2022-08-23T04:10:10.153Z,66.28
2022-08-23T04:11:10.140Z,66.28
2022-08-23T04:12:17.308Z,66.28
2022-08-23T04:13:11.114Z,66.17
2022-08-23T04:14:10.113Z,65.97
2022-08-23T04:15:10.096Z,66.17
2022-08-23T04:16:10.118Z,66.38
2022-08-23T04:17:10.096Z,66.38
2022-08-23T04:18:10.089Z,66.38
2022-08-23T04:19:10.046Z,66.67
2022-08-23T04:20:10.045Z,66.88
2022-08-23T04:21:10.023Z,67.01
2022-08-23T04:22:10.021Z,66.88
2022-08-23T04:23:10.015Z,67.01
2022-08-23T04:24:10.019Z,67.01
2022-08-23T04:25:26.142Z,67.08
2022-08-23T04:26:11.019Z,67.18
2022-08-23T04:27:09.965Z,67.18
2022-08-23T04:28:09.960Z,67.38
2022-08-23T04:29:09.949Z,67.58
2022-08-23T04:30:09.971Z,67.68
2022-08-23T04:31:09.965Z,67.38
2022-08-23T04:32:11.649Z,67.48
2022-08-23T04:33:11.838Z,67.48
2022-08-23T04:34:09.903Z,67.58
2022-08-23T04:35:09.875Z,67.78
2022-08-23T04:36:09.906Z,67.78
2022-08-23T04:37:09.868Z,67.68
2022-08-23T04:38:23.974Z,67.88
2022-08-23T04:39:10.829Z,67.28
2022-08-23T04:40:09.929Z,67.28
2022-08-23T04:41:11.224Z,67.28
2022-08-23T04:42:14.304Z,67.88
2022-08-23T04:43:10.806Z,68.08
2022-08-23T04:44:09.792Z,67.78
2022-08-23T04:45:09.756Z,67.38
2022-08-23T04:46:09.782Z,67.28
2022-08-23T04:47:09.764Z,67.38
2022-08-23T04:48:11.689Z,67.38
2022-08-23T04:49:09.718Z,67.28
2022-08-23T04:50:09.731Z,67.38
2022-08-23T04:51:09.718Z,67.38
2022-08-23T04:52:09.730Z,67.18
2022-08-23T04:53:09.685Z,67.18
2022-08-23T04:54:09.689Z,67.08
2022-08-23T04:55:09.691Z,66.67
2022-08-23T04:56:09.679Z,66.67
2022-08-23T04:57:09.655Z,66.58
2022-08-23T04:58:09.654Z,66.28
2022-08-23T04:59:09.612Z,66.38
2022-08-23T05:00:09.641Z,66.47
2022-08-23T05:01:09.657Z,66.67
2022-08-23T05:02:09.846Z,66.67
2022-08-23T05:03:09.686Z,66.78
2022-08-23T05:04:09.638Z,66.85
2022-08-23T05:05:09.549Z,67.35
2022-08-23T05:06:09.754Z,67.45
2022-08-23T05:07:09.557Z,67.55
2022-08-23T05:08:09.526Z,67.65
2022-08-23T05:09:09.515Z,67.78
2022-08-23T05:10:09.505Z,67.78
2022-08-23T05:11:09.506Z,67.78
2022-08-23T05:12:09.546Z,67.98
2022-08-23T05:13:09.574Z,68.08
2022-08-23T05:14:11.415Z,68.29
2022-08-23T05:15:11.398Z,68.18
2022-08-23T05:16:09.437Z,68.29
2022-08-23T05:17:09.459Z,68.29
2022-08-23T05:18:09.410Z,68.08
2022-08-23T05:19:09.391Z,68.41
2022-08-23T05:20:09.391Z,68.82
2022-08-23T05:21:09.375Z,68.62
2022-08-23T05:22:09.410Z,68.62
2022-08-23T05:23:09.363Z,68.52
2022-08-23T05:24:09.359Z,68.41
2022-08-23T05:25:09.352Z,68.72
2022-08-23T05:26:09.323Z,68.68
2022-08-23T05:27:13.383Z,68.18
2022-08-23T05:28:09.324Z,67.88
2022-08-23T05:29:09.301Z,67.98
2022-08-23T05:30:09.298Z,68.38
2022-08-23T05:31:11.530Z,68.59
2022-08-23T05:32:09.263Z,68.38
2022-08-23T05:33:09.255Z,67.98
2022-08-23T05:34:11.198Z,67.58
2022-08-23T05:35:09.234Z,67.18
2022-08-23T05:36:09.222Z,67.68
2022-08-23T05:37:09.205Z,67.88
2022-08-23T05:38:09.216Z,68.38
2022-08-23T05:39:09.183Z,68.49
2022-08-23T05:40:09.249Z,68.59
2022-08-23T05:41:09.183Z,68.68
2022-08-23T05:42:09.154Z,68.59
2022-08-23T05:43:09.142Z,68.92
2022-08-23T05:44:09.414Z,68.52
2022-08-23T05:45:09.110Z,68.72
2022-08-23T05:46:13.004Z,69.12
2022-08-23T05:47:10.288Z,69.02
2022-08-23T05:48:09.081Z,68.82
2022-08-23T05:49:09.099Z,68.62
2022-08-23T05:50:09.064Z,68.52
2022-08-23T05:51:09.051Z,68.62
2022-08-23T05:52:09.035Z,69.09
2022-08-23T05:53:09.034Z,68.68
2022-08-23T05:54:09.972Z,68.79
2022-08-23T05:55:09.006Z,68.79
2022-08-23T05:56:08.998Z,68.68
2022-08-23T05:57:08.991Z,68.49
2022-08-23T05:58:09.017Z,68.79
2022-08-23T05:59:12.381Z,68.88
2022-08-23T06:00:08.960Z,68.99
2022-08-23T06:01:08.975Z,69.09
2022-08-23T06:02:08.952Z,68.38
2022-08-23T06:03:08.931Z,68.45
2022-08-23T06:04:08.909Z,68.95
2022-08-23T06:05:09.867Z,69.06
2022-08-23T06:06:08.902Z,68.95
2022-08-23T06:07:08.876Z,68.45
2022-08-23T06:08:08.880Z,68.25
2022-08-23T06:09:08.865Z,68.15
2022-08-23T06:10:08.849Z,67.92
2022-08-23T06:11:09.835Z,67.52
2022-08-23T06:12:08.827Z,67.22
2022-08-23T06:13:08.821Z,66.91
2022-08-23T06:14:08.879Z,66.58
2022-08-23T06:15:08.811Z,66.28
2022-08-23T06:16:15.165Z,65.98
2022-08-23T06:17:09.791Z,65.78
2022-08-23T06:18:08.763Z,65.45
2022-08-23T06:19:08.744Z,65.25
2022-08-23T06:20:08.770Z,64.65
2022-08-23T06:21:08.724Z,64.45
2022-08-23T06:22:08.730Z,64.15
2022-08-23T06:23:08.695Z,64.01
2022-08-23T06:24:08.705Z,63.71
2022-08-23T06:25:09.765Z,63.31
2022-08-23T06:26:08.675Z,62.92
2022-08-23T06:27:08.680Z,62.81
2022-08-23T06:28:08.647Z,62.92
2022-08-23T06:29:09.439Z,63.01
2022-08-23T06:30:08.629Z,62.81
2022-08-23T06:31:08.673Z,62.81
2022-08-23T06:32:08.664Z,62.81
2022-08-23T06:33:08.594Z,63.11
2022-08-23T06:34:08.662Z,64.01
2022-08-23T06:35:32.915Z,64.31
2022-08-23T06:36:09.582Z,63.98
2022-08-23T06:37:08.559Z,63.89
2022-08-23T06:38:08.533Z,63.68
2022-08-23T06:39:08.523Z,63.28
2022-08-23T06:40:08.646Z,62.98
2022-08-23T06:41:08.940Z,62.98
2022-08-23T06:42:28.016Z,63.18
2022-08-23T06:43:09.499Z,62.88
2022-08-23T06:44:08.477Z,62.38
2022-08-23T06:45:08.456Z,62.58
2022-08-23T06:46:08.466Z,62.78
2022-08-23T06:47:08.456Z,63.08
2022-08-23T06:48:08.425Z,63.11
2022-08-23T06:49:09.374Z,63.61
2022-08-23T06:50:08.415Z,64.18
2022-08-23T06:51:08.418Z,62.88
2022-08-23T06:52:08.386Z,62.98
2022-08-23T06:53:09.975Z,63.08
2022-08-23T06:54:08.359Z,62.88
2022-08-23T06:55:13.115Z,63.28
2022-08-23T06:56:09.359Z,63.28
2022-08-23T06:57:08.337Z,63.25
2022-08-23T06:58:08.310Z,63.56
2022-08-23T06:59:08.334Z,63.25
2022-08-23T07:00:08.313Z,63.06
2022-08-23T07:01:14.676Z,63.85
2022-08-23T07:02:09.469Z,63.22
2022-08-23T07:03:08.350Z,62.92
2022-08-23T07:04:08.256Z,62.12
2022-08-23T07:05:08.237Z,61.49
2022-08-23T07:06:08.229Z,61.69
2022-08-23T07:07:11.348Z,62.09
2022-08-23T07:08:08.207Z,61.79
2022-08-23T07:09:08.199Z,61.49
2022-08-23T07:10:08.180Z,61.29
2022-08-23T07:11:08.191Z,61.36
2022-08-23T07:12:08.160Z,60.96
2022-08-23T07:13:08.152Z,60.66
2022-08-23T07:14:08.145Z,60.86
2022-08-23T07:15:08.142Z,60.66
2022-08-23T07:16:08.172Z,60.16
2022-08-23T07:17:08.128Z,60.36
2022-08-23T07:18:08.099Z,59.86
2022-08-23T07:19:09.097Z,60.53
2022-08-23T07:20:08.101Z,58.67
2022-08-23T07:21:08.061Z,58.47
2022-08-23T07:22:08.082Z,58.67
2022-08-23T07:23:08.053Z,59.06
2022-08-23T07:24:08.041Z,58.94
2022-08-23T07:25:08.046Z,58.54
2022-08-23T07:26:08.094Z,58.94
2022-08-23T07:27:08.105Z,58.84
2022-08-23T07:28:11.633Z,59.04
2022-08-23T07:29:07.971Z,59.14
2022-08-23T07:30:07.993Z,59.34
2022-08-23T07:31:11.388Z,59.01
2022-08-23T07:32:09.004Z,58.61
2022-08-23T07:33:08.085Z,58.38
2022-08-23T07:34:07.948Z,58.28
2022-08-23T07:35:07.938Z,57.09
2022-08-23T07:36:07.895Z,57.28
2022-08-23T07:37:15.587Z,56.29
2022-08-23T07:38:08.875Z,55.26
2022-08-23T07:39:07.868Z,55.46
2022-08-23T07:40:07.921Z,55.06
2022-08-23T07:41:07.857Z,55.06
2022-08-23T07:42:22.857Z,54.66
2022-08-23T07:43:08.821Z,54.53
2022-08-23T07:44:07.824Z,54.44
2022-08-23T07:45:09.987Z,54.64
2022-08-23T07:46:07.831Z,54.53
2022-08-23T07:47:07.784Z,54.24
2022-08-23T07:48:07.780Z,54.51
2022-08-23T07:49:07.762Z,54.71
2022-08-23T07:50:07.760Z,54.21
2022-08-23T07:51:07.739Z,53.71
2022-08-23T07:52:07.717Z,54.11
2022-08-23T07:53:07.723Z,53.81
2022-08-23T07:54:07.735Z,53.81
2022-08-23T07:55:07.736Z,53.91
2022-08-23T07:56:07.683Z,54.21
2022-08-23T07:57:07.886Z,54.01
2022-08-23T07:58:07.652Z,53.02
2022-08-23T07:59:07.646Z,53.31
2022-08-23T08:00:07.640Z,53.52
2022-08-23T08:01:07.642Z,54.01
2022-08-23T08:02:07.647Z,54.01
2022-08-23T08:03:07.784Z,53.41
2022-08-23T08:04:07.612Z,53.89
2022-08-23T08:05:07.623Z,53.78
2022-08-23T08:06:07.612Z,53.78
2022-08-23T08:07:22.833Z,53.39
2022-08-23T08:08:08.560Z,53.19
2022-08-23T08:09:07.583Z,53.29
2022-08-23T08:10:07.535Z,53.36
2022-08-23T08:11:07.521Z,52.76
2022-08-23T08:12:07.506Z,52.67
2022-08-23T08:13:07.511Z,53.27
2022-08-23T08:14:07.477Z,53.06
2022-08-23T08:15:07.486Z,52.64
2022-08-23T08:16:07.535Z,52.64
2022-08-23T08:17:07.478Z,52.64
2022-08-23T08:18:07.444Z,52.44
2022-08-23T08:19:07.961Z,51.95
2022-08-23T08:20:07.439Z,52.34
2022-08-23T08:21:07.405Z,52.14
2022-08-23T08:22:07.422Z,52.44
2022-08-23T08:23:07.398Z,52.24
2022-08-23T08:24:07.369Z,52.24
2022-08-23T08:25:07.368Z,52.44
2022-08-23T08:26:07.348Z,52.74
2022-08-23T08:27:07.928Z,52.24
2022-08-23T08:28:09.464Z,52.22
2022-08-23T08:29:08.335Z,51.72
2022-08-23T08:30:07.299Z,51.72
2022-08-23T08:31:07.319Z,52.02
2022-08-23T08:32:07.291Z,51.52
2022-08-23T08:33:07.360Z,51.72
2022-08-23T08:34:07.307Z,52.02
2022-08-23T08:35:07.285Z,52.42
2022-08-23T08:36:07.298Z,51.92
2022-08-23T08:37:07.289Z,51.60
2022-08-23T08:38:07.233Z,51.70
2022-08-23T08:39:07.218Z,51.40
2022-08-23T08:40:07.266Z,51.40
2022-08-23T08:41:07.194Z,51.30
2022-08-23T08:42:07.202Z,51.40
2022-08-23T08:43:07.207Z,51.60
2022-08-23T08:44:07.244Z,51.47
2022-08-23T08:45:07.209Z,51.07
2022-08-23T08:46:07.251Z,51.07
2022-08-23T08:47:07.139Z,51.28
2022-08-23T08:48:11.376Z,51.28
2022-08-23T08:49:08.125Z,51.07
2022-08-23T08:50:07.093Z,50.78
2022-08-23T08:51:07.082Z,51.17
2022-08-23T08:52:07.495Z,51.37
2022-08-23T08:53:07.075Z,51.07
2022-08-23T08:54:07.077Z,51.17
2022-08-23T08:55:07.061Z,51.28
2022-08-23T08:56:07.089Z,51.25
2022-08-23T08:57:07.040Z,50.85
2022-08-23T08:58:07.048Z,51.05
2022-08-23T08:59:07.035Z,51.15
2022-08-23T09:00:07.054Z,50.75
2022-08-23T09:01:06.986Z,50.75
2022-08-23T09:02:07.208Z,50.45
2022-08-23T09:03:08.044Z,50.26
2022-08-23T09:04:06.959Z,50.35
2022-08-23T09:05:06.949Z,50.45
2022-08-23T09:06:06.951Z,50.45
2022-08-23T09:07:06.967Z,50.85
2022-08-23T09:08:06.918Z,50.43
2022-08-23T09:09:06.908Z,49.74
2022-08-23T09:10:06.897Z,50.03
2022-08-23T09:11:06.873Z,50.13
2022-08-23T09:12:06.895Z,49.84
2022-08-23T09:13:06.887Z,49.91
2022-08-23T09:14:06.828Z,49.61
2022-08-23T09:15:06.866Z,49.21
2022-08-23T09:16:06.891Z,49.11
2022-08-23T09:17:06.808Z,48.92
2022-08-23T09:18:06.831Z,48.62
2022-08-23T09:19:06.810Z,48.30
2022-08-23T09:20:06.791Z,48.69
2022-08-23T09:21:06.762Z,48.60
2022-08-23T09:22:06.788Z,48.40
2022-08-23T09:23:06.752Z,48.60
2022-08-23T09:24:06.743Z,48.80
2022-08-23T09:25:10.229Z,48.69
2022-08-23T09:26:06.726Z,48.20
2022-08-23T09:27:06.792Z,48.69
2022-08-23T09:28:06.690Z,48.69
2022-08-23T09:29:06.672Z,48.69
2022-08-23T09:30:06.662Z,48.99
2022-08-23T09:31:08.276Z,48.90
2022-08-23T09:32:06.641Z,48.60
2022-08-23T09:33:06.646Z,48.40
2022-08-23T09:34:08.572Z,47.90
2022-08-23T09:35:06.618Z,47.98
2022-08-23T09:36:06.633Z,48.18
2022-08-23T09:37:06.587Z,48.18
2022-08-23T09:38:06.584Z,47.78
2022-08-23T09:39:06.571Z,47.98
2022-08-23T09:40:06.593Z,47.78
2022-08-23T09:41:06.553Z,47.88
2022-08-23T09:42:06.539Z,47.58
2022-08-23T09:43:06.525Z,47.58
2022-08-23T09:44:06.503Z,47.58
2022-08-23T09:45:06.550Z,47.19
2022-08-23T09:46:06.546Z,47.19
2022-08-23T09:47:06.476Z,47.49
2022-08-23T09:48:06.492Z,47.58
2022-08-23T09:49:06.460Z,47.68
2022-08-23T09:50:06.438Z,47.49
2022-08-23T09:51:06.432Z,47.49
2022-08-23T09:52:06.415Z,47.16
2022-08-23T09:53:06.699Z,47.26
2022-08-23T09:54:06.388Z,46.97
2022-08-23T09:55:06.414Z,46.67
2022-08-23T09:56:06.396Z,46.67
2022-08-23T09:57:06.547Z,45.78
2022-08-23T09:58:06.371Z,46.47
2022-08-23T09:59:06.342Z,45.78
2022-08-23T10:00:06.324Z,46.27
2022-08-23T10:01:06.512Z,46.37
2022-08-23T10:02:06.419Z,46.27
2022-08-23T10:03:06.326Z,45.78
2022-08-23T10:04:06.292Z,45.18
2022-08-23T10:05:06.360Z,44.76
2022-08-23T10:06:06.292Z,44.96
2022-08-23T10:07:06.259Z,45.16
2022-08-23T10:08:10.274Z,44.76
2022-08-23T10:09:06.226Z,44.37
2022-08-23T10:10:06.226Z,44.96
2022-08-23T10:11:08.238Z,44.54
2022-08-23T10:12:07.493Z,44.54
2022-08-23T10:13:06.190Z,43.87
2022-08-23T10:14:06.180Z,43.87
2022-08-23T10:15:06.183Z,44.07
2022-08-23T10:16:06.208Z,44.54
2022-08-23T10:17:06.151Z,44.35
2022-08-23T10:18:06.131Z,43.85
2022-08-23T10:19:06.130Z,43.26
2022-08-23T10:20:06.105Z,43.65
2022-08-23T10:21:06.289Z,43.85
2022-08-23T10:22:06.103Z,43.95
2022-08-23T10:23:08.048Z,44.13
2022-08-23T10:24:06.088Z,44.13
2022-08-23T10:25:06.080Z,43.73
2022-08-23T10:26:06.044Z,43.93
2022-08-23T10:27:06.027Z,44.42
2022-08-23T10:28:06.030Z,44.42
2022-08-23T10:29:06.038Z,43.63
2022-08-23T10:30:06.017Z,42.14
2022-08-23T10:31:06.048Z,41.95
2022-08-23T10:32:06.000Z,43.85
2022-08-23T10:33:05.982Z,44.24
2022-08-23T10:34:05.952Z,43.65
2022-08-23T10:35:05.945Z,43.75
2022-08-23T10:36:05.980Z,43.26
2022-08-23T10:37:05.970Z,44.15
2022-08-23T10:38:05.911Z,43.85
2022-08-23T10:39:05.911Z,44.15
2022-08-23T10:40:05.920Z,44.45
2022-08-23T10:41:05.886Z,44.54
2022-08-23T10:42:05.862Z,44.15
2022-08-23T10:43:05.866Z,43.85
2022-08-23T10:44:05.860Z,44.13
2022-08-23T10:45:05.838Z,43.93
2022-08-23T10:46:07.818Z,43.63
2022-08-23T10:47:05.832Z,44.13
2022-08-23T10:48:05.805Z,44.32
2022-08-23T10:49:05.800Z,44.02
2022-08-23T10:50:05.807Z,44.02
2022-08-23T10:51:05.773Z,43.93
2022-08-23T10:52:05.761Z,44.02
2022-08-23T10:53:05.750Z,43.95
2022-08-23T10:54:05.739Z,43.65
2022-08-23T10:55:05.750Z,43.95
2022-08-23T10:56:05.710Z,43.75
2022-08-23T10:57:05.719Z,43.65
2022-08-23T10:58:05.715Z,43.24
2022-08-23T10:59:05.685Z,42.64
2022-08-23T11:00:05.680Z,43.04
2022-08-23T11:01:07.687Z,43.13
2022-08-23T11:02:05.660Z,43.04
2022-08-23T11:03:05.751Z,43.83
2022-08-23T11:04:05.642Z,43.83
2022-08-23T11:05:05.622Z,43.73
2022-08-23T11:06:05.627Z,43.16
2022-08-23T11:07:05.598Z,43.55
2022-08-23T11:08:05.599Z,42.96
2022-08-23T11:09:05.585Z,42.46
2022-08-23T11:10:05.597Z,42.64
2022-08-23T11:11:05.557Z,42.84
2022-08-23T11:12:05.627Z,43.33
2022-08-23T11:13:05.542Z,43.33
2022-08-23T11:14:05.568Z,42.32
2022-08-23T11:15:05.545Z,42.32
2022-08-23T11:16:05.551Z,43.12
2022-08-23T11:17:05.547Z,43.10
2022-08-23T11:18:05.483Z,43.59
2022-08-23T11:19:05.470Z,42.90
2022-08-23T11:20:05.456Z,42.70
2022-08-23T11:21:05.532Z,42.50
2022-08-23T11:22:05.455Z,42.70
2022-08-23T11:23:05.467Z,42.99
2022-08-23T11:24:05.411Z,42.70
2022-08-23T11:25:06.341Z,42.90
2022-08-23T11:26:05.408Z,42.92
2022-08-23T11:27:06.758Z,42.62
2022-08-23T11:28:05.414Z,42.22
2022-08-23T11:29:05.354Z,42.52
2022-08-23T11:30:05.340Z,42.32
2022-08-23T11:31:05.388Z,41.53
2022-08-23T11:32:05.342Z,42.43
2022-08-23T11:33:05.318Z,42.13
2022-08-23T11:34:05.325Z,42.43
2022-08-23T11:35:05.303Z,42.82
2022-08-23T11:36:05.293Z,42.52
2022-08-23T11:37:05.270Z,43.21
2022-08-23T11:38:05.546Z,42.82
2022-08-23T11:39:05.275Z,42.43
2022-08-23T11:40:05.325Z,42.90
2022-08-23T11:41:05.251Z,42.30
2022-08-23T11:42:06.168Z,42.01
2022-08-23T11:43:05.203Z,42.01
2022-08-23T11:44:05.203Z,41.91
2022-08-23T11:45:05.188Z,42.40
2022-08-23T11:46:05.224Z,41.52
2022-08-23T11:47:05.177Z,41.10
2022-08-23T11:48:05.159Z,40.70
2022-08-23T11:49:05.138Z,41.49
2022-08-23T11:50:05.154Z,41.59
2022-08-23T11:51:05.123Z,41.49
2022-08-23T11:52:05.135Z,40.23
2022-08-23T11:53:05.117Z,42.01
2022-08-23T11:54:05.088Z,41.71
2022-08-23T11:55:05.073Z,41.52
2022-08-23T11:56:05.062Z,42.30
2022-08-23T11:57:05.048Z,41.33
2022-08-23T11:58:05.063Z,41.14
2022-08-23T11:59:08.738Z,40.84
2022-08-23T12:00:05.059Z,40.84
2022-08-23T12:01:05.008Z,41.93
2022-08-23T12:02:05.026Z,42.30
2022-08-23T12:03:05.145Z,41.12
2022-08-23T12:04:05.113Z,40.53
2022-08-23T12:05:07.058Z,40.61
2022-08-23T12:06:04.956Z,40.41
2022-08-23T12:07:04.944Z,40.50
2022-08-23T12:08:05.258Z,39.99
2022-08-23T12:09:04.944Z,40.19
2022-08-23T12:10:06.884Z,40.29
2022-08-23T12:11:05.186Z,40.69
2022-08-23T12:12:04.905Z,40.98
2022-08-23T12:13:04.901Z,41.17
2022-08-23T12:14:04.872Z,41.38
2022-08-23T12:15:04.880Z,40.69
2022-08-23T12:16:04.924Z,40.78
2022-08-23T12:17:04.864Z,40.19
2022-08-23T12:18:04.839Z,40.29
2022-08-23T12:19:06.784Z,40.56
2022-08-23T12:20:04.844Z,40.27
2022-08-23T12:21:04.801Z,40.47
2022-08-23T12:22:04.870Z,40.47
2022-08-23T12:23:06.732Z,40.37
2022-08-23T12:24:04.901Z,39.60
2022-08-23T12:25:04.774Z,41.28
2022-08-23T12:26:04.747Z,40.29
2022-08-23T12:27:04.758Z,40.19
2022-08-23T12:28:04.721Z,40.17
2022-08-23T12:29:04.699Z,41.08
2022-08-23T12:30:04.894Z,40.98
2022-08-23T12:31:07.948Z,40.98
2022-08-23T12:32:04.688Z,40.39
2022-08-23T12:33:04.678Z,40.07
2022-08-23T12:34:04.653Z,39.97
2022-08-23T12:35:04.656Z,40.45
2022-08-23T12:36:04.652Z,39.95
2022-08-23T12:37:09.366Z,39.56
2022-08-23T12:38:04.627Z,39.65
2022-08-23T12:39:04.614Z,39.56
2022-08-23T12:40:05.422Z,38.77
2022-08-23T12:41:04.575Z,39.76
2022-08-23T12:42:04.671Z,38.77
2022-08-23T12:43:04.557Z,38.67
2022-08-23T12:44:04.559Z,38.87
2022-08-23T12:45:05.252Z,38.87
2022-08-23T12:46:04.987Z,38.95
2022-08-23T12:47:04.515Z,38.75
2022-08-23T12:48:04.563Z,38.45
2022-08-23T12:49:04.483Z,37.37
2022-08-23T12:50:04.480Z,37.74
2022-08-23T12:51:04.477Z,39.15
2022-08-23T12:52:04.452Z,38.85